• Join FlightAware (Why Join?)
  • Login
  • US Flag 
Gobble Gobble! 
07:54AM EST


 

Airport Tracker/Info


-or-


 

Live Flight TrackerFlight Track Log ✈ WIG1043 ✈ 08-Apr-2014 ✈ KBGR - KMHT

Flight Track Log - Related Links

Times and Time Zones

All times are in EDT time to prevent confusion due to time zone crossing. See the WIG1043 flight status page for this flight to view local times or setup timezone preferences in your user account.

Time Position Orientation Groundspeed Altitude Reporting Facility
EDT Latitude Longitude Course Direction KTS MPH feet Rate Location/Type
07:41PM 44.7378 -68.7633 224° Southwest 154 177 3,800  Level Boston Center
07:42PM 44.6875 -68.7561 174° South 193 222 3,900 60 Climbing Boston Center
07:44PM 44.6181 -68.8642 228° Southwest 189 217 4,100 60 Climbing Boston Center
07:45PM 44.5850 -68.9186 230° Southwest 185 213 4,100  Level Boston Center
07:46PM 44.6111 -69.1041 224° Southwest  Level FlightAware Approximate
07:46PM 44.5506 -68.9711 227° Southwest 185 213 4,100  Level Boston Center
07:48PM 44.4764 -69.0906 229° Southwest 185 213 4,100  Level Boston Center
07:50PM 44.4075 -69.2003 229° Southwest 185 213 4,100  Level Boston Center
07:51PM 44.3733 -69.2544 229° Southwest 185 213 4,100  Level Boston Center
07:52PM 44.3381 -69.3108 229° Southwest 185 213 4,100  Level Boston Center
07:55PM 44.2303 -69.4803 237° Southwest 192 221 4,100 -60 Level Boston Center
07:56PM 44.1928 -69.5369 227° Southwest 192 221 4,000 -60 Descending Boston Center
07:57PM 44.1469 -69.5981 224° Southwest 206 237 4,000 -60 Level Boston Center
07:58PM 44.1133 -69.6597 233° Southwest 202 232 3,900 -60 Descending Boston Center
07:59PM 44.0792 -69.7189 231° Southwest 201 231 3,900  Level Boston Center
08:00PM 44.0367 -69.7778 225° Southwest 200 230 3,900  Level Boston Center
08:01PM 44.1453 -69.7012 237° Southwest  Level FlightAware Approximate
08:01PM 43.9994 -69.8322 226° Southwest 196 226 3,900  Level Boston Center
08:02PM 43.9675 -69.8894 232° Southwest 190 219 4,000  Climbing Boston Center
08:03PM 43.9319 -69.9436 228° Southwest 190 219 4,000  Level Boston Center
08:04PM 43.8919 -70.0003 226° Southwest 191 220 4,000  Level Boston Center
08:05PM 43.8564 -70.0519 226° Southwest 189 217 4,000  Level Boston Center
08:06PM 43.8233 -70.1072 230° Southwest 187 215 4,000  Level Boston Center
08:08PM 43.7514 -70.2153 229° Southwest 187 215 4,000  Level Boston Center
08:09PM 43.7156 -70.2686 227° Southwest 188 216 4,000  Level Boston Center
08:10PM 43.6800 -70.3272 230° Southwest 187 215 4,000  Level Boston Center
08:11PM 43.6456 -70.3794 228° Southwest 186 214 4,000  Level Boston Center
08:12PM 43.6106 -70.4311 227° Southwest 186 214 4,000  Level Boston Center
08:13PM 43.5747 -70.4825 226° Southwest 186 214 4,000  Level Boston Center
08:14PM 43.5403 -70.5344 228° Southwest 185 213 4,000 -60 Level Boston Center
08:16PM 43.4706 -70.6417 228° Southwest 183 211 3,900 -60 Descending Boston Center
08:17PM 43.4358 -70.6914 226° Southwest 182 209 3,900  Level Boston Center
08:18PM 43.4006 -70.7411 226° Southwest 182 209 3,900  Level Boston Center
08:19PM 43.3650 -70.7967 229° Southwest 182 209 3,900  Level Boston Center
08:21PM 43.3322 -70.8478 229° Southwest 181 208 3,900  Level Boston Center
08:22PM 43.2983 -70.8994 228° Southwest 180 207 3,900  Level Boston Center
08:23PM 43.2633 -70.9492 226° Southwest 181 208 3,900  Level Boston Center
08:24PM 43.2267 -71.0017 226° Southwest 181 208 3,900  Level Boston Center
08:25PM 43.1942 -71.0528 229° Southwest 180 207 3,900  Level Boston Center
08:26PM 43.1628 -71.1039 230° Southwest 179 206 3,900  Level Boston Center
08:27PM 43.1300 -71.1558 229° Southwest 179 206 3,900  Level Boston Center
08:28PM 43.0944 -71.2106 228° Southwest 179 206 4,000 -60 Climbing Boston Center
08:29PM 43.0622 -71.2631 230° Southwest 179 206 3,800 -720 Descending Boston Center
08:30PM 43.0167 -71.3500 234° Southwest 163 188 2,100 -840 Descending KA90
08:32PM 42.9736 -71.3922 216° Southwest 115 132 1,300 -660 Descending Boston Center
08:33PM 42.9536 -71.4169 222° Southwest 101 116 600 -480 Descending Boston Center
08:34PM 42.9364 -71.4383 222° Southwest 101 116 400 -240 Descending Boston Center
08:36PM 42.9328 -71.4358 222° Southwest  Level Estimated